Terminal Aerodrome Forecast
Issued by NWS Shreveport, LA

Home | Current Version | Previous Version | Text Only | Print | Product List | Glossary On
Versions: 1 2 3 4 5 6 7 8 9 10 11 12 13 14
000
FTUS44 KSHV 011741
TAFLFK
TAF
KLFK 011741Z 0118/0218 23007KT P6SM SCT030 BKN040
     FM012100 22010KT P6SM VCTS SCT045CB BKN140
     FM020100 17006KT P6SM FEW050 SCT100 BKN250
     FM020600 17005KT P6SM SCT120
     FM020900 20010KT P6SM FEW012 SCT100
     FM021100 21010KT 6SM BR BKN010
      TEMPO 0212/0213 5SM BR BKN010
     FM021400 22018G24KT P6SM SCT015 BKN250=

USA.gov is the U.S. government's official web portal to all federal, state and local government web resources and services.